createdAt,value
2018-05-18T00:00:57.947Z,20.51
2018-05-18T00:03:24.236Z,20.43
2018-05-18T00:05:50.533Z,20.43
2018-05-18T00:08:16.865Z,20.41
2018-05-18T00:10:43.164Z,20.35
2018-05-18T00:13:09.497Z,20.27
2018-05-18T00:15:35.805Z,20.20
2018-05-18T00:18:02.083Z,20.11
2018-05-18T00:20:28.382Z,20.10
2018-05-18T00:22:54.670Z,20.12
2018-05-18T00:25:21.003Z,20.14
2018-05-18T00:27:47.290Z,20.12
2018-05-18T00:30:13.620Z,20.09
2018-05-18T00:32:39.928Z,20.10
2018-05-18T00:35:06.231Z,20.09
2018-05-18T00:37:32.526Z,20.02
2018-05-18T00:39:58.823Z,19.99
2018-05-18T00:42:25.116Z,19.98
2018-05-18T00:44:51.451Z,20.03
2018-05-18T00:47:17.747Z,20.05
2018-05-18T00:49:44.043Z,20.02
2018-05-18T00:52:10.336Z,19.95
2018-05-18T00:54:36.629Z,19.94
2018-05-18T00:57:02.957Z,19.90
2018-05-18T00:59:29.214Z,19.87
2018-05-18T01:01:55.503Z,19.87
2018-05-18T01:04:21.818Z,19.77
2018-05-18T01:06:48.088Z,19.76
2018-05-18T01:09:14.390Z,19.76
2018-05-18T01:11:40.668Z,19.76
2018-05-18T01:14:06.961Z,19.78
2018-05-18T01:16:33.252Z,19.78
2018-05-18T01:18:59.548Z,19.82
2018-05-18T01:21:25.839Z,19.78
2018-05-18T01:23:52.128Z,19.79
2018-05-18T01:26:18.457Z,19.71
2018-05-18T01:28:44.743Z,19.71
2018-05-18T01:31:11.108Z,19.75
2018-05-18T01:33:37.375Z,19.76
2018-05-18T01:36:03.667Z,19.73
2018-05-18T01:38:29.953Z,19.70
2018-05-18T01:40:56.284Z,19.69
2018-05-18T01:43:22.577Z,19.72
2018-05-18T01:45:48.870Z,19.69
2018-05-18T01:48:15.171Z,19.68
2018-05-18T01:50:41.467Z,19.62
2018-05-18T01:53:07.782Z,19.60
2018-05-18T01:55:34.082Z,19.58
2018-05-18T01:58:00.428Z,19.55
2018-05-18T02:00:26.734Z,19.56
2018-05-18T02:02:53.038Z,19.55
2018-05-18T02:05:19.334Z,19.51
2018-05-18T02:07:45.630Z,19.46
2018-05-18T02:10:11.926Z,19.44
2018-05-18T02:12:38.216Z,19.39
2018-05-18T02:15:04.515Z,19.40
2018-05-18T02:17:30.839Z,19.45
2018-05-18T02:19:57.127Z,19.44
2018-05-18T02:22:23.416Z,19.40
2018-05-18T02:24:49.704Z,19.36
2018-05-18T02:27:16.017Z,19.37
2018-05-18T02:29:42.309Z,19.34
2018-05-18T02:32:08.596Z,19.30
2018-05-18T02:34:34.892Z,19.25
2018-05-18T02:37:01.182Z,19.26
2018-05-18T02:39:27.476Z,19.23
2018-05-18T02:41:53.760Z,19.21
2018-05-18T02:44:20.108Z,19.15
2018-05-18T02:46:46.408Z,19.16
2018-05-18T02:49:12.698Z,19.18
2018-05-18T02:51:38.988Z,19.11
2018-05-18T02:54:05.272Z,19.05
2018-05-18T02:56:31.564Z,19.08
2018-05-18T02:58:57.860Z,19.05
2018-05-18T03:01:24.154Z,19.08
2018-05-18T03:03:50.481Z,19.08
2018-05-18T03:06:16.783Z,19.06
2018-05-18T03:08:43.079Z,19.02
2018-05-18T03:11:09.383Z,19.02
2018-05-18T03:13:35.678Z,19.03
2018-05-18T03:16:02.011Z,19.00
2018-05-18T03:18:28.302Z,18.95
2018-05-18T03:20:54.656Z,18.89
2018-05-18T03:23:20.990Z,18.87
2018-05-18T03:25:47.280Z,18.88
2018-05-18T03:28:13.580Z,18.92
2018-05-18T03:30:39.875Z,18.88
2018-05-18T03:33:06.203Z,18.85
2018-05-18T03:35:32.490Z,18.83
2018-05-18T03:37:58.779Z,18.77
2018-05-18T03:40:25.069Z,18.70
2018-05-18T03:42:51.403Z,18.75
2018-05-18T03:45:17.695Z,18.81
2018-05-18T03:47:44.001Z,18.87
2018-05-18T03:50:10.361Z,18.89
2018-05-18T03:52:36.657Z,18.90
2018-05-18T03:55:02.986Z,18.91
2018-05-18T03:57:29.278Z,18.91
2018-05-18T03:59:55.591Z,18.91
2018-05-18T04:02:21.885Z,18.92
2018-05-18T04:04:48.181Z,18.97
2018-05-18T04:07:14.512Z,19.02
2018-05-18T04:09:40.803Z,19.03
2018-05-18T04:12:07.097Z,19.02
2018-05-18T04:14:33.392Z,19.04
2018-05-18T04:16:59.720Z,19.12
2018-05-18T04:19:26.055Z,19.27
2018-05-18T04:21:52.378Z,19.46
2018-05-18T04:24:18.664Z,19.55
2018-05-18T04:26:44.992Z,19.61
2018-05-18T04:29:11.286Z,19.61
2018-05-18T04:31:37.687Z,19.53
2018-05-18T04:34:03.907Z,19.49
2018-05-18T04:36:30.194Z,19.44
2018-05-18T04:38:56.488Z,19.39
2018-05-18T04:41:22.826Z,19.48
2018-05-18T04:43:49.111Z,19.81
2018-05-18T04:46:15.439Z,19.89
2018-05-18T04:48:41.728Z,19.92
2018-05-18T04:51:08.055Z,19.90
2018-05-18T04:53:34.403Z,19.73
2018-05-18T04:56:00.696Z,19.64
2018-05-18T04:58:27.047Z,19.63
2018-05-18T05:00:53.371Z,19.62
2018-05-18T05:03:19.660Z,19.59
2018-05-18T05:05:45.951Z,19.59
2018-05-18T05:08:12.247Z,19.62
2018-05-18T05:10:38.540Z,19.62
2018-05-18T05:13:04.838Z,19.63
2018-05-18T05:15:31.164Z,19.66
2018-05-18T05:17:57.516Z,19.65
2018-05-18T05:20:23.795Z,19.68
2018-05-18T05:22:50.128Z,19.75
2018-05-18T05:25:16.424Z,19.77
2018-05-18T05:27:42.747Z,19.83
2018-05-18T05:30:09.040Z,19.89
2018-05-18T05:32:35.340Z,19.97
2018-05-18T05:35:01.629Z,20.05
2018-05-18T05:37:27.919Z,20.13
2018-05-18T05:39:54.210Z,20.19
2018-05-18T05:42:20.495Z,20.21
2018-05-18T05:44:46.833Z,20.25
2018-05-18T05:47:13.118Z,20.31
2018-05-18T05:49:39.426Z,20.37
2018-05-18T05:52:05.715Z,20.44
2018-05-18T05:54:32.013Z,20.55
2018-05-18T05:56:58.309Z,20.62
2018-05-18T05:59:24.596Z,20.67
2018-05-18T06:01:50.895Z,20.73
2018-05-18T06:04:17.184Z,20.82
2018-05-18T06:06:43.515Z,20.93
2018-05-18T06:09:09.852Z,21.01
2018-05-18T06:11:36.143Z,21.07
2018-05-18T06:14:02.448Z,21.15
2018-05-18T06:16:28.739Z,21.25
2018-05-18T06:18:55.102Z,21.32
2018-05-18T06:21:21.336Z,21.43
2018-05-18T06:23:47.624Z,21.50
2018-05-18T06:26:13.980Z,21.55
2018-05-18T06:28:40.326Z,21.67
2018-05-18T06:31:06.616Z,21.77
2018-05-18T06:33:32.975Z,21.86
2018-05-18T06:35:59.206Z,21.97
2018-05-18T06:38:25.504Z,22.09
2018-05-18T06:40:51.800Z,22.06
2018-05-18T06:43:18.090Z,22.07
2018-05-18T06:45:44.382Z,22.13
2018-05-18T06:48:10.694Z,22.28
2018-05-18T06:50:36.993Z,22.42
2018-05-18T06:53:03.280Z,22.52
2018-05-18T06:55:29.574Z,22.64
2018-05-18T06:57:55.882Z,22.75
2018-05-18T07:00:22.177Z,22.81
2018-05-18T07:02:48.500Z,22.87
2018-05-18T07:05:14.789Z,22.98
2018-05-18T07:07:41.074Z,23.14
2018-05-18T07:10:07.370Z,23.33
2018-05-18T07:12:33.656Z,23.32
2018-05-18T07:14:59.944Z,23.26
2018-05-18T07:17:26.240Z,23.23
2018-05-18T07:19:52.532Z,23.34
2018-05-18T07:22:18.819Z,23.46
2018-05-18T07:24:45.111Z,23.44
2018-05-18T07:27:11.400Z,23.46
2018-05-18T07:29:37.696Z,23.50
2018-05-18T07:32:03.997Z,23.52
2018-05-18T07:34:30.286Z,23.55
2018-05-18T07:36:56.581Z,23.61
2018-05-18T07:39:22.881Z,23.68
2018-05-18T07:41:49.182Z,23.76
2018-05-18T07:44:15.483Z,23.85
2018-05-18T07:46:41.771Z,23.95
2018-05-18T07:49:08.122Z,24.03
2018-05-18T07:51:34.423Z,24.08
2018-05-18T07:54:00.713Z,24.16
2018-05-18T07:56:27.015Z,24.21
2018-05-18T07:58:53.308Z,24.26
2018-05-18T08:01:19.598Z,24.26
2018-05-18T08:03:45.892Z,24.30
2018-05-18T08:06:12.181Z,24.36
2018-05-18T08:08:38.473Z,24.39
2018-05-18T08:11:04.770Z,24.44
2018-05-18T08:13:31.065Z,24.51
2018-05-18T08:15:57.357Z,24.61
2018-05-18T08:18:23.655Z,24.75
2018-05-18T08:20:49.943Z,24.85
2018-05-18T08:23:16.242Z,24.90
2018-05-18T08:25:42.565Z,24.95
2018-05-18T08:28:08.896Z,25.02
2018-05-18T08:30:35.231Z,25.08
2018-05-18T08:33:01.522Z,25.13
2018-05-18T08:35:27.852Z,25.17
2018-05-18T08:37:54.175Z,25.19
2018-05-18T08:40:20.475Z,25.20
2018-05-18T08:42:46.800Z,25.18
2018-05-18T08:45:13.089Z,25.10
2018-05-18T08:47:39.423Z,25.14
2018-05-18T08:50:05.832Z,25.26
2018-05-18T08:52:32.046Z,25.31
2018-05-18T08:54:58.394Z,25.38
2018-05-18T08:57:24.690Z,25.41
2018-05-18T08:59:50.992Z,25.43
2018-05-18T09:02:17.289Z,25.52
2018-05-18T09:04:43.629Z,25.64
2018-05-18T09:07:09.960Z,25.72
2018-05-18T09:09:36.313Z,25.75
2018-05-18T09:12:02.599Z,25.81
2018-05-18T09:14:28.886Z,25.85
2018-05-18T09:16:55.199Z,25.91
2018-05-18T09:19:21.472Z,26.02
2018-05-18T09:21:47.759Z,26.05
2018-05-18T09:24:14.049Z,26.06
2018-05-18T09:26:40.341Z,25.99
2018-05-18T09:29:06.626Z,25.92
2018-05-18T09:31:32.970Z,25.97
2018-05-18T09:33:59.276Z,26.03
2018-05-18T09:36:25.548Z,26.10
2018-05-18T09:38:51.840Z,26.15
2018-05-18T09:41:18.126Z,26.11
2018-05-18T09:43:44.425Z,26.16
2018-05-18T09:46:10.708Z,26.26
2018-05-18T09:48:37.024Z,26.36
2018-05-18T09:51:03.342Z,26.45
2018-05-18T09:53:29.675Z,26.52
2018-05-18T09:55:55.937Z,26.55
2018-05-18T09:58:22.229Z,26.64
2018-05-18T10:00:48.625Z,26.68
2018-05-18T10:03:14.819Z,26.67
2018-05-18T10:05:41.109Z,26.81
2018-05-18T10:08:07.398Z,26.96
2018-05-18T10:10:33.687Z,27.03
2018-05-18T10:12:59.987Z,27.07
2018-05-18T10:15:26.297Z,27.22
2018-05-18T10:17:52.620Z,27.35
2018-05-18T10:20:18.880Z,27.40
2018-05-18T10:22:45.174Z,27.37
2018-05-18T10:25:11.468Z,27.29
2018-05-18T10:27:37.761Z,27.19
2018-05-18T10:30:04.050Z,27.19
2018-05-18T10:32:30.350Z,27.10
2018-05-18T10:34:56.649Z,26.98
2018-05-18T10:37:22.942Z,26.82
2018-05-18T10:39:49.281Z,26.93
2018-05-18T10:42:15.574Z,27.05
2018-05-18T10:44:41.879Z,27.06
2018-05-18T10:47:08.173Z,27.15
2018-05-18T10:49:34.463Z,27.21
2018-05-18T10:52:00.761Z,27.21
2018-05-18T10:54:27.103Z,27.15
2018-05-18T10:56:53.390Z,27.15
2018-05-18T10:59:19.716Z,27.15
2018-05-18T11:01:45.968Z,27.04
2018-05-18T11:04:12.255Z,26.96
2018-05-18T11:06:38.555Z,26.85
2018-05-18T11:09:04.843Z,26.83
2018-05-18T11:11:31.135Z,26.75
2018-05-18T11:13:57.504Z,26.81
2018-05-18T11:16:23.780Z,26.95
2018-05-18T11:18:50.071Z,26.97
2018-05-18T11:21:16.371Z,26.92
2018-05-18T11:23:42.666Z,26.87
2018-05-18T11:26:08.953Z,26.80
2018-05-18T11:28:35.258Z,26.84
2018-05-18T11:31:01.570Z,26.91
2018-05-18T11:33:27.860Z,26.99
2018-05-18T11:35:54.159Z,27.08
2018-05-18T11:38:20.465Z,27.14
2018-05-18T11:40:46.757Z,27.17
2018-05-18T11:43:13.053Z,27.19
2018-05-18T11:45:39.347Z,27.17
2018-05-18T11:48:05.640Z,27.09
2018-05-18T11:50:31.939Z,27.03
2018-05-18T11:52:58.269Z,26.98
2018-05-18T11:55:24.562Z,26.93
2018-05-18T11:57:50.853Z,26.89
2018-05-18T12:00:19.241Z,26.83
2018-05-18T12:02:43.474Z,26.66
2018-05-18T12:05:09.817Z,26.54
2018-05-18T12:07:36.104Z,26.55
2018-05-18T12:10:02.401Z,26.64
2018-05-18T12:12:28.755Z,26.72
2018-05-18T12:14:55.043Z,26.85
2018-05-18T12:17:21.343Z,26.96
2018-05-18T12:19:47.639Z,27.07
2018-05-18T12:22:13.951Z,27.15
2018-05-18T12:24:40.257Z,27.16
2018-05-18T12:27:06.546Z,27.17
2018-05-18T12:29:32.833Z,27.16
2018-05-18T12:31:59.124Z,27.17
2018-05-18T12:34:25.431Z,27.21
2018-05-18T12:36:51.721Z,27.24
2018-05-18T12:39:18.015Z,27.24
2018-05-18T12:41:44.321Z,27.23
2018-05-18T12:44:10.613Z,27.22
2018-05-18T12:46:36.904Z,27.21
2018-05-18T12:49:03.199Z,27.21
2018-05-18T12:51:29.487Z,27.17
2018-05-18T12:53:55.852Z,27.18
2018-05-18T12:56:22.139Z,27.20
2018-05-18T12:58:48.469Z,27.24
2018-05-18T13:01:14.874Z,27.27
2018-05-18T13:03:41.165Z,27.27
2018-05-18T13:06:07.453Z,27.25
2018-05-18T13:08:33.744Z,27.20
2018-05-18T13:11:00.027Z,27.19
2018-05-18T13:13:26.319Z,27.17
2018-05-18T13:15:52.669Z,27.14
2018-05-18T13:18:18.907Z,27.14
2018-05-18T13:20:45.200Z,27.14
2018-05-18T13:23:11.497Z,27.16
2018-05-18T13:25:37.827Z,27.16
2018-05-18T13:28:04.160Z,27.12
2018-05-18T13:30:30.525Z,27.09
2018-05-18T13:32:56.764Z,27.04
2018-05-18T13:35:23.060Z,27.01
2018-05-18T13:37:49.397Z,27.00
2018-05-18T13:40:15.689Z,27.01
2018-05-18T13:42:42.019Z,27.02
2018-05-18T13:45:08.355Z,26.97
2018-05-18T13:47:34.566Z,26.96
2018-05-18T13:50:00.928Z,26.96
2018-05-18T13:52:27.216Z,26.92
2018-05-18T13:54:53.550Z,26.89
2018-05-18T13:57:19.893Z,26.86
2018-05-18T13:59:46.179Z,26.85
2018-05-18T14:02:12.469Z,26.82
2018-05-18T14:04:38.806Z,26.83
2018-05-18T14:07:05.097Z,26.78
2018-05-18T14:09:31.393Z,26.72
2018-05-18T14:11:57.813Z,26.63
2018-05-18T14:14:24.149Z,26.64
2018-05-18T14:16:50.469Z,26.65
2018-05-18T14:19:16.817Z,26.67
2018-05-18T14:21:43.156Z,26.69
2018-05-18T14:24:09.490Z,26.69
2018-05-18T14:26:35.783Z,26.70
2018-05-18T14:29:02.079Z,26.69
2018-05-18T14:31:28.411Z,26.69
2018-05-18T14:33:54.712Z,26.70
2018-05-18T14:36:20.999Z,26.69
2018-05-18T14:38:47.296Z,26.68
2018-05-18T14:41:13.594Z,26.69
2018-05-18T14:43:39.885Z,26.64
2018-05-18T14:46:06.185Z,26.64
2018-05-18T14:48:32.490Z,26.66
2018-05-18T14:50:58.784Z,26.66
2018-05-18T14:53:25.079Z,26.70
2018-05-18T14:55:51.387Z,26.70
2018-05-18T14:58:17.680Z,26.68
2018-05-18T15:00:43.975Z,26.64
2018-05-18T15:03:10.263Z,26.59
2018-05-18T15:05:36.590Z,26.54
2018-05-18T15:08:02.840Z,26.55
2018-05-18T15:10:29.127Z,26.54
2018-05-18T15:12:55.424Z,26.54
2018-05-18T15:15:21.721Z,26.53
2018-05-18T15:17:48.015Z,26.54
2018-05-18T15:20:14.313Z,26.51
2018-05-18T15:22:40.615Z,26.48
2018-05-18T15:25:06.910Z,26.44
2018-05-18T15:27:33.208Z,26.43
2018-05-18T15:29:59.502Z,26.40
2018-05-18T15:32:25.820Z,26.38
2018-05-18T15:34:52.119Z,26.31
2018-05-18T15:37:18.465Z,26.27
2018-05-18T15:39:44.711Z,26.23
2018-05-18T15:42:11.007Z,26.21
2018-05-18T15:44:37.293Z,26.24
2018-05-18T15:47:03.584Z,26.23
2018-05-18T15:49:29.876Z,26.22
2018-05-18T15:51:56.182Z,26.16
2018-05-18T15:54:22.470Z,26.13
2018-05-18T15:56:48.795Z,26.11
2018-05-18T15:59:15.071Z,26.06
2018-05-18T16:01:41.369Z,26.03
2018-05-18T16:04:07.659Z,26.01
2018-05-18T16:06:33.965Z,25.99
2018-05-18T16:09:00.271Z,25.97
2018-05-18T16:11:26.565Z,25.93
2018-05-18T16:13:52.864Z,25.89
2018-05-18T16:16:19.149Z,25.88
2018-05-18T16:18:45.439Z,25.92
2018-05-18T16:21:11.727Z,25.95
2018-05-18T16:23:38.016Z,25.97
2018-05-18T16:26:04.303Z,25.94
2018-05-18T16:28:30.591Z,25.97
2018-05-18T16:30:56.880Z,25.99
2018-05-18T16:33:23.214Z,26.01
2018-05-18T16:35:49.458Z,26.02
2018-05-18T16:38:15.754Z,26.01
2018-05-18T16:40:42.051Z,25.99
2018-05-18T16:43:08.354Z,25.97
2018-05-18T16:45:34.686Z,25.93
2018-05-18T16:48:00.935Z,25.89
2018-05-18T16:50:27.289Z,25.86
2018-05-18T16:52:53.603Z,25.85
2018-05-18T16:55:19.886Z,25.82
2018-05-18T16:57:46.184Z,25.81
2018-05-18T17:00:12.510Z,25.82
2018-05-18T17:02:38.807Z,25.83
2018-05-18T17:05:05.102Z,25.85
2018-05-18T17:07:31.428Z,25.82
2018-05-18T17:09:57.717Z,25.81
2018-05-18T17:12:24.034Z,25.81
2018-05-18T17:14:50.299Z,25.81
2018-05-18T17:17:16.629Z,25.79
2018-05-18T17:19:42.968Z,25.76
2018-05-18T17:22:09.217Z,25.73
2018-05-18T17:24:35.513Z,25.70
2018-05-18T17:27:01.799Z,25.67
2018-05-18T17:29:28.094Z,25.65
2018-05-18T17:31:54.379Z,25.63
2018-05-18T17:34:20.668Z,25.61
2018-05-18T17:36:46.961Z,25.60
2018-05-18T17:39:13.256Z,25.56
2018-05-18T17:41:39.550Z,25.54
2018-05-18T17:44:05.845Z,25.50
2018-05-18T17:46:32.140Z,25.50
2018-05-18T17:48:58.477Z,25.48
2018-05-18T17:51:24.723Z,25.45
2018-05-18T17:53:51.011Z,25.43
2018-05-18T17:56:17.299Z,25.42
2018-05-18T17:58:43.591Z,25.39
2018-05-18T18:01:09.880Z,25.39
2018-05-18T18:03:36.176Z,25.37
2018-05-18T18:06:02.463Z,25.36
2018-05-18T18:08:28.761Z,25.34
2018-05-18T18:10:55.048Z,25.33
2018-05-18T18:13:21.335Z,25.31
2018-05-18T18:15:47.679Z,25.28
2018-05-18T18:18:13.965Z,25.27
2018-05-18T18:20:40.313Z,25.26
2018-05-18T18:23:06.609Z,25.23
2018-05-18T18:25:32.902Z,25.21
2018-05-18T18:27:59.193Z,25.18
2018-05-18T18:30:25.486Z,25.17
2018-05-18T18:32:51.781Z,25.15
2018-05-18T18:35:18.080Z,25.14
2018-05-18T18:37:44.412Z,25.11
2018-05-18T18:40:10.701Z,25.08
2018-05-18T18:42:37.002Z,25.08
2018-05-18T18:45:03.343Z,25.07
2018-05-18T18:47:29.639Z,25.04
2018-05-18T18:49:55.970Z,25.01
2018-05-18T18:52:22.266Z,24.98
2018-05-18T18:54:48.609Z,24.97
2018-05-18T18:57:14.907Z,24.96
2018-05-18T18:59:41.208Z,24.93
2018-05-18T19:02:07.493Z,24.92
2018-05-18T19:04:33.784Z,24.92
2018-05-18T19:07:00.084Z,24.91
2018-05-18T19:09:26.373Z,24.90
2018-05-18T19:11:52.738Z,24.88
2018-05-18T19:14:19.032Z,24.85
2018-05-18T19:16:45.325Z,24.84
2018-05-18T19:19:11.621Z,24.81
2018-05-18T19:21:37.909Z,24.79
2018-05-18T19:24:04.240Z,24.79
2018-05-18T19:26:30.527Z,24.79
2018-05-18T19:28:56.811Z,24.78
2018-05-18T19:31:23.119Z,24.77
2018-05-18T19:33:49.393Z,24.75
2018-05-18T19:36:15.688Z,24.74
2018-05-18T19:38:41.981Z,24.72
2018-05-18T19:41:08.269Z,24.71
2018-05-18T19:43:34.562Z,24.70
2018-05-18T19:46:00.892Z,24.69
2018-05-18T19:48:27.175Z,24.67
2018-05-18T19:50:53.469Z,24.64
2018-05-18T19:53:19.761Z,24.63
2018-05-18T19:55:46.088Z,24.62
2018-05-18T19:58:12.387Z,24.62
2018-05-18T20:00:38.678Z,24.60
2018-05-18T20:03:04.976Z,24.59
2018-05-18T20:05:31.272Z,24.57
2018-05-18T20:07:57.565Z,24.57
2018-05-18T20:10:23.859Z,24.55
2018-05-18T20:12:50.156Z,24.54
2018-05-18T20:15:16.443Z,24.51
2018-05-18T20:17:42.732Z,24.50
2018-05-18T20:20:09.036Z,24.47
2018-05-18T20:22:35.323Z,24.47
2018-05-18T20:25:01.620Z,24.48
2018-05-18T20:27:27.949Z,24.49
2018-05-18T20:29:54.247Z,24.47
2018-05-18T20:32:20.545Z,24.45
2018-05-18T20:34:46.837Z,24.43
2018-05-18T20:37:13.133Z,24.42
2018-05-18T20:39:39.435Z,24.41
2018-05-18T20:42:05.723Z,24.40
2018-05-18T20:44:32.023Z,24.38
2018-05-18T20:46:58.306Z,24.37
2018-05-18T20:49:24.601Z,24.36
2018-05-18T20:51:50.936Z,24.33
2018-05-18T20:54:17.232Z,24.32
2018-05-18T20:56:43.529Z,24.30
2018-05-18T20:59:09.864Z,24.29
2018-05-18T21:01:36.153Z,24.27
2018-05-18T21:04:02.492Z,24.25
2018-05-18T21:06:28.782Z,24.24
2018-05-18T21:08:55.072Z,24.24
2018-05-18T21:11:21.422Z,24.21
2018-05-18T21:13:47.712Z,24.18
2018-05-18T21:16:14.007Z,24.18
2018-05-18T21:18:40.301Z,24.17
2018-05-18T21:21:06.587Z,24.14
2018-05-18T21:23:32.888Z,24.13
2018-05-18T21:25:59.179Z,24.14
2018-05-18T21:28:25.468Z,24.13
2018-05-18T21:30:51.761Z,24.11
2018-05-18T21:33:18.050Z,24.09
2018-05-18T21:35:44.388Z,24.08
2018-05-18T21:38:10.686Z,24.06
2018-05-18T21:40:36.982Z,24.03
2018-05-18T21:43:03.272Z,24.04
2018-05-18T21:45:29.576Z,24.03
2018-05-18T21:47:55.869Z,24.01
2018-05-18T21:50:22.163Z,24.02
2018-05-18T21:52:48.457Z,24.01
2018-05-18T21:55:14.749Z,23.98
2018-05-18T21:57:41.047Z,23.96
2018-05-18T22:00:07.340Z,23.98
2018-05-18T22:02:33.679Z,23.96
2018-05-18T22:05:00.016Z,23.93
2018-05-18T22:07:26.318Z,23.91
2018-05-18T22:09:52.610Z,23.90
2018-05-18T22:12:18.906Z,23.88
2018-05-18T22:14:45.201Z,23.87
2018-05-18T22:17:11.499Z,23.85
2018-05-18T22:19:37.795Z,23.85
2018-05-18T22:22:04.084Z,23.85
2018-05-18T22:24:30.383Z,23.84
2018-05-18T22:26:56.678Z,23.81
2018-05-18T22:29:22.975Z,23.79
2018-05-18T22:31:49.265Z,23.77
2018-05-18T22:34:15.553Z,23.77
2018-05-18T22:36:41.854Z,23.76
2018-05-18T22:39:08.144Z,23.75
2018-05-18T22:41:34.440Z,23.74
2018-05-18T22:44:00.731Z,23.73
2018-05-18T22:46:27.023Z,23.72
2018-05-18T22:48:53.319Z,23.72
2018-05-18T22:51:19.613Z,23.71
2018-05-18T22:53:45.903Z,23.71
2018-05-18T22:56:12.191Z,23.70
2018-05-18T22:58:38.485Z,23.68
2018-05-18T23:01:04.771Z,23.66
2018-05-18T23:03:31.065Z,23.66
2018-05-18T23:05:57.351Z,23.64
2018-05-18T23:08:23.678Z,23.62
2018-05-18T23:10:49.964Z,23.59
2018-05-18T23:13:16.298Z,23.58
2018-05-18T23:15:42.593Z,23.57
2018-05-18T23:18:08.885Z,23.54
2018-05-18T23:20:35.175Z,23.53
2018-05-18T23:23:01.503Z,23.52
2018-05-18T23:25:27.855Z,23.50
2018-05-18T23:27:54.143Z,23.51
2018-05-18T23:30:20.439Z,23.49
2018-05-18T23:32:46.770Z,23.48
2018-05-18T23:35:13.067Z,23.47
2018-05-18T23:37:39.355Z,23.46
2018-05-18T23:40:05.654Z,23.45
2018-05-18T23:42:31.945Z,23.44
2018-05-18T23:44:58.273Z,23.43
2018-05-18T23:47:24.575Z,23.41
2018-05-18T23:49:50.865Z,23.39
2018-05-18T23:52:17.165Z,23.38
2018-05-18T23:54:43.453Z,23.38
2018-05-18T23:57:09.750Z,23.37
2018-05-18T23:59:36.046Z,23.36
